Terminal Aerodrome Forecast
Issued by NWS

Home | Current Version | Previous Version | Text Only | Print | Product List | Glossary On
Versions: 1 2 3 4 5 6 7 8 9 10 11 12 13 14 15 16 17 18 19 20 21 22 23 24 25 26 27 28 29 30 31 32 33 34 35 36 37 38 39 40 41 42
960
FTUS42 KRAH 230529
TAFRWI
TAF
KRWI 230529Z 2306/2406 22008KT P6SM FEW100 FEW250
     FM232000 23010KT P6SM VCSH SCT045 SCT250
      TEMPO 2322/2402 3SM -TSRA BKN030CB=

USA.gov is the U.S. government's official web portal to all federal, state and local government web resources and services.